Aérodrome :
LOGIN :

S'inscrire | Disclaimer

   EN    FR    IT 

 










Légende :    VFR   VFR Marginal   IFR   IFR Intensif   IFR Très Intensif
Visi : 
Plafond : 
>= 8 km
>= 3000ft
5 à 8 km
1000 à 3000 ft
1500m à 5 km
500 à 1000 ft
800 à 1500m
200 à 500 ft
< 800m
< 200 ft
Symboles :   Orages  Brouillard  Fortes neiges  Fortes précipitations  Vent > 20 kt
SIGMETs :   Divers  Orages  Givrage  Turbulence  Onde Orograph.  Cendres Volcan.






- Altitude de l'aérodrome : 10 ft
- Code IATA : AAL


EKYT - Aalborg

DERNIER METAR :
  • 121550Z AUTO 28019KT 9999 FEW023/// BKN027/// BKN037/// OVC070/// 15/11 Q1022

METARs EXPIRÉS :
  • 121536Z AUTO 28016G27KT 9999 FEW024/// SCT028/// BKN032/// BKN075/// 16/11 Q1022
  • 121532Z AUTO 28017G28KT 9999 FEW024/// SCT030/// BKN036/// BKN075/// 16/11 Q1022
  • 121520Z AUTO 28017KT 9999 SCT023/// BKN035/// BKN075/// 16/11 Q1022
  • 121453Z AUTO 28016G27KT 260V320 9999 FEW022/// SCT026/// BKN032/// OVC042/// 16/11 Q1022
  • 121420Z AUTO 28018KT 9999 FEW023/// SCT037/// BKN047/// BKN075/// 16/10 Q1022
  • 121350Z AUTO 29018KT 9999 FEW025/// BKN049/// 16/10 Q1022
  • 121320Z AUTO 28017KT 9999 FEW025/// SCT036/// BKN041/// BKN048/// 16/11 Q1022

TAF TAF EKYT
Valide du 12 à 15h jusqu'au 13 à 15h UTC


121421Z 1215/1315 28015G28KT 9999 SCT035
BECMG 1219/1222 28015KT
TEMPO 1300/1306 BKN012
BECMG 1313/1315 24008KT



MET'MAP, la Météo Aéronautique d'un coup d'oeil ! - Copyright ORBIFLY Décembre 2007 - Disclaimer

ORBIFLY MET'MAP TEAM :

Programmation & Développement : Alexandra Zaïnal
Sur une idée originale de : Baudouin d'Aumeries
Assistance à la programmation : Marc-Olivier Méhu
Soutien technique & logistique : Manuel Goepfert

Contact : metmap@orbifly.com




SOURCES & CREDITS :

   NOAA